createdAt,value
2023-02-17T00:03:01.886Z,24.23
2023-02-17T00:06:40.179Z,18.17
2023-02-17T00:13:19.242Z,19.33
2023-02-17T00:16:27.198Z,12.05
2023-02-17T00:19:30.613Z,18.92
2023-02-17T00:22:36.294Z,19.95
2023-02-17T00:25:41.217Z,23.33
2023-02-17T00:28:48.774Z,17.58
2023-02-17T00:32:13.018Z,19.30
2023-02-17T00:35:49.017Z,21.65
2023-02-17T00:38:55.567Z,24.98
2023-02-17T00:42:00.050Z,26.20
2023-02-17T00:45:34.220Z,23.52
2023-02-17T00:52:55.722Z,21.92
2023-02-17T00:55:59.422Z,18.00
2023-02-17T00:59:25.530Z,23.42
2023-02-17T01:02:35.734Z,29.90
2023-02-17T01:05:45.987Z,23.90
2023-02-17T01:08:57.917Z,26.27
2023-02-17T01:12:02.997Z,22.15
2023-02-17T01:15:10.797Z,24.25
2023-02-17T01:18:18.454Z,26.80
2023-02-17T01:21:31.778Z,18.23
2023-02-17T01:24:57.094Z,20.77
2023-02-17T01:28:04.649Z,30.92
2023-02-17T01:31:11.924Z,31.15
2023-02-17T01:34:19.954Z,34.92
2023-02-17T01:37:25.324Z,24.83
2023-02-17T01:40:34.423Z,26.58
2023-02-17T01:43:37.861Z,34.13
2023-02-17T01:47:01.447Z,27.33
2023-02-17T01:50:09.689Z,31.33
2023-02-17T01:53:22.260Z,23.40
2023-02-17T01:56:37.817Z,27.30
2023-02-17T01:59:42.239Z,19.80
2023-02-17T02:02:51.765Z,31.42
2023-02-17T02:06:00.495Z,26.42
2023-02-17T02:09:07.166Z,23.20
2023-02-17T02:12:43.765Z,17.80
2023-02-17T02:20:43.565Z,19.48
2023-02-17T02:23:54.745Z,21.17
2023-02-17T02:27:05.864Z,25.88
2023-02-17T02:30:22.613Z,21.27
2023-02-17T02:34:24.956Z,22.87
2023-02-17T02:37:42.234Z,24.70
2023-02-17T02:40:52.675Z,21.55
2023-02-17T02:43:56.110Z,21.25
2023-02-17T02:47:44.118Z,27.17
2023-02-17T02:54:48.343Z,13.62
2023-02-17T02:58:02.800Z,17.52
2023-02-17T03:02:02.328Z,19.73
2023-02-17T03:05:28.486Z,19.75
2023-02-17T03:08:51.688Z,16.20
2023-02-17T03:11:57.928Z,22.92
2023-02-17T03:15:08.584Z,17.10
2023-02-17T03:18:17.163Z,14.82
2023-02-17T03:21:21.983Z,18.65
2023-02-17T03:24:30.088Z,18.15
2023-02-17T03:28:05.243Z,14.18
2023-02-17T03:31:13.164Z,20.62
2023-02-17T03:34:54.094Z,18.50
2023-02-17T03:38:25.693Z,22.17
2023-02-17T03:41:29.208Z,18.55
2023-02-17T03:44:33.387Z,22.02
2023-02-17T03:47:37.841Z,17.70
2023-02-17T03:51:18.684Z,14.15
2023-02-17T03:54:41.673Z,21.40
2023-02-17T04:02:44.482Z,16.73
2023-02-17T04:05:49.226Z,9.05
2023-02-17T04:09:20.855Z,14.85
2023-02-17T04:12:56.870Z,20.05
2023-02-17T04:16:35.966Z,15.48
2023-02-17T04:20:40.270Z,19.00
2023-02-17T04:23:44.668Z,19.83
2023-02-17T04:26:49.280Z,21.30
2023-02-17T04:29:55.515Z,23.48
2023-02-17T04:33:23.464Z,18.80
2023-02-17T04:36:51.607Z,19.70
2023-02-17T04:40:46.600Z,19.42
2023-02-17T04:43:51.516Z,21.08
2023-02-17T04:46:59.098Z,19.50
2023-02-17T04:50:07.065Z,16.58
2023-02-17T04:53:55.368Z,20.83
2023-02-17T04:57:19.104Z,17.95
2023-02-17T05:00:26.412Z,20.77
2023-02-17T05:04:04.490Z,17.95
2023-02-17T05:07:29.940Z,25.37
2023-02-17T05:10:35.749Z,21.15
2023-02-17T05:13:44.305Z,19.48
2023-02-17T05:16:47.679Z,23.30
2023-02-17T05:19:56.211Z,17.48
2023-02-17T05:23:07.279Z,17.10
2023-02-17T05:26:33.317Z,24.08
2023-02-17T05:29:40.143Z,21.52
2023-02-17T05:33:07.320Z,25.62
2023-02-17T05:39:47.863Z,18.20
2023-02-17T05:43:24.397Z,24.10
2023-02-17T05:46:48.768Z,21.50
2023-02-17T05:50:13.520Z,24.77
2023-02-17T05:53:57.602Z,22.20
2023-02-17T05:57:16.142Z,28.42
2023-02-17T06:00:48.858Z,18.08
2023-02-17T06:04:17.432Z,20.00
2023-02-17T06:07:22.072Z,18.73
2023-02-17T06:10:29.110Z,20.65
2023-02-17T06:13:33.960Z,25.98
2023-02-17T06:16:40.439Z,33.10
2023-02-17T06:20:06.163Z,26.02
2023-02-17T06:23:49.869Z,21.80
2023-02-17T06:26:55.689Z,25.45
2023-02-17T06:33:24.977Z,20.10
2023-02-17T06:36:30.437Z,18.92
2023-02-17T06:39:32.996Z,20.73
2023-02-17T06:42:36.859Z,22.62
2023-02-17T06:45:55.246Z,22.00
2023-02-17T06:49:00.459Z,31.12
2023-02-17T06:52:03.459Z,21.15
2023-02-17T06:55:07.185Z,26.67
2023-02-17T06:58:11.002Z,22.73
2023-02-17T07:01:35.113Z,26.37
2023-02-17T07:04:42.150Z,32.05
2023-02-17T07:07:53.238Z,30.65
2023-02-17T07:10:58.786Z,27.08
2023-02-17T07:14:02.886Z,29.33
2023-02-17T07:17:07.030Z,28.27
2023-02-17T07:20:11.928Z,28.77
2023-02-17T07:23:16.461Z,30.80
2023-02-17T07:26:24.089Z,29.52
2023-02-17T07:30:09.356Z,36.20
2023-02-17T07:33:18.338Z,33.17
2023-02-17T07:36:21.544Z,36.90
2023-02-17T07:39:30.649Z,33.63
2023-02-17T07:42:37.256Z,36.03
2023-02-17T07:45:42.042Z,38.25
2023-02-17T07:48:48.335Z,42.43
2023-02-17T07:52:12.666Z,40.08
2023-02-17T07:55:43.343Z,38.88
2023-02-17T07:59:12.576Z,38.25
2023-02-17T08:02:35.272Z,36.25
2023-02-17T08:09:07.672Z,34.85
2023-02-17T08:12:48.987Z,36.78
2023-02-17T08:15:52.677Z,37.53
2023-02-17T08:19:07.449Z,33.65
2023-02-17T08:22:10.474Z,38.42
2023-02-17T08:25:15.698Z,36.53
2023-02-17T08:28:38.792Z,37.83
2023-02-17T08:31:45.441Z,36.35
2023-02-17T08:34:51.427Z,52.72
2023-02-17T08:38:27.273Z,44.10
2023-02-17T08:54:32.871Z,24.20
2023-02-17T08:58:04.111Z,19.70
2023-02-17T09:01:54.471Z,24.92
2023-02-17T09:05:28.815Z,22.85
2023-02-17T09:09:07.540Z,24.65
2023-02-17T09:12:59.308Z,21.45
2023-02-17T09:16:42.025Z,23.02
2023-02-17T09:20:16.251Z,24.45
2023-02-17T09:23:54.842Z,25.77
2023-02-17T09:27:22.005Z,17.65
2023-02-17T09:30:27.593Z,23.62
2023-02-17T09:33:34.840Z,19.25
2023-02-17T09:37:20.642Z,17.95
2023-02-17T09:40:50.693Z,20.65
2023-02-17T09:44:32.871Z,22.23
2023-02-17T09:48:02.053Z,25.85
2023-02-17T09:51:23.934Z,25.17
2023-02-17T09:55:04.373Z,24.63
2023-02-17T09:58:26.597Z,26.37
2023-02-17T10:01:37.163Z,23.65
2023-02-17T10:04:47.265Z,24.40
2023-02-17T10:08:32.503Z,28.08
2023-02-17T10:11:39.122Z,30.80
2023-02-17T10:15:09.489Z,31.50
2023-02-17T10:18:19.750Z,33.53
2023-02-17T10:21:32.807Z,22.90
2023-02-17T10:24:37.856Z,25.25
2023-02-17T10:28:11.100Z,22.17
2023-02-17T10:31:21.170Z,21.00
2023-02-17T10:35:17.509Z,23.77
2023-02-17T10:39:16.152Z,23.60
2023-02-17T10:42:41.001Z,28.42
2023-02-17T10:46:31.839Z,26.67
2023-02-17T10:49:57.749Z,27.65
2023-02-17T10:53:29.324Z,29.73
2023-02-17T10:56:56.578Z,28.95
2023-02-17T11:00:39.227Z,28.23
2023-02-17T11:04:22.953Z,27.35
2023-02-17T11:07:42.543Z,27.33
2023-02-17T11:11:30.690Z,31.40
2023-02-17T11:14:57.832Z,29.70
2023-02-17T11:18:28.764Z,29.25
2023-02-17T11:25:34.944Z,30.15
2023-02-17T11:29:19.056Z,29.48
2023-02-17T11:32:34.323Z,31.50
2023-02-17T11:35:38.641Z,37.58
2023-02-17T11:38:48.467Z,31.83
2023-02-17T11:42:02.637Z,37.88
2023-02-17T11:45:22.320Z,37.75
2023-02-17T11:48:55.602Z,34.92
2023-02-17T11:52:13.844Z,36.00
2023-02-17T11:55:46.722Z,40.47
2023-02-17T11:59:14.914Z,32.20
2023-02-17T12:02:31.211Z,33.55
2023-02-17T12:05:37.260Z,32.17
2023-02-17T12:09:37.954Z,38.10
2023-02-17T12:12:55.342Z,34.08
2023-02-17T12:16:42.716Z,34.17
2023-02-17T12:20:04.578Z,34.33
2023-02-17T12:24:07.193Z,36.00
2023-02-17T12:27:15.756Z,34.13
2023-02-17T12:30:25.758Z,34.97
2023-02-17T12:33:29.302Z,32.28
2023-02-17T12:36:36.959Z,41.30
2023-02-17T12:39:45.910Z,42.92
2023-02-17T12:43:01.525Z,41.88
2023-02-17T12:46:12.305Z,40.12
2023-02-17T12:49:40.345Z,36.53
2023-02-17T12:52:48.914Z,33.85
2023-02-17T12:55:59.731Z,34.05
2023-02-17T12:59:51.133Z,39.70
2023-02-17T13:02:59.092Z,31.48
2023-02-17T13:06:29.336Z,34.97
2023-02-17T13:09:32.165Z,36.40
2023-02-17T13:12:40.880Z,32.45
2023-02-17T13:15:49.514Z,30.55
2023-02-17T13:19:15.040Z,32.08
2023-02-17T13:22:26.734Z,33.15
2023-02-17T13:25:37.421Z,33.35
2023-02-17T13:28:41.769Z,28.73
2023-02-17T13:31:54.661Z,26.42
2023-02-17T13:35:38.425Z,29.00
2023-02-17T13:39:28.143Z,28.10
2023-02-17T13:43:10.309Z,24.58
2023-02-17T13:46:25.450Z,31.37
2023-02-17T13:49:38.406Z,30.23
2023-02-17T13:53:21.636Z,27.83
2023-02-17T13:56:53.129Z,20.55
2023-02-17T14:00:17.234Z,28.23
2023-02-17T14:03:26.962Z,24.80
2023-02-17T14:06:32.952Z,30.77
2023-02-17T14:09:35.937Z,25.27
2023-02-17T14:12:41.443Z,30.67
2023-02-17T14:16:06.738Z,28.55
2023-02-17T14:19:14.521Z,30.40
2023-02-17T14:22:30.601Z,32.97
2023-02-17T14:25:56.833Z,29.33
2023-02-17T14:29:05.264Z,28.90
2023-02-17T14:32:35.115Z,29.00
2023-02-17T14:35:40.122Z,32.70
2023-02-17T14:38:43.648Z,25.92
2023-02-17T14:41:47.352Z,28.80
2023-02-17T14:44:50.621Z,23.05
2023-02-17T14:47:56.673Z,38.95
2023-02-17T14:51:24.053Z,29.17
2023-02-17T14:55:16.616Z,33.17
2023-02-17T14:58:28.193Z,28.48
2023-02-17T15:01:32.012Z,28.65
2023-02-17T15:04:37.682Z,20.42
2023-02-17T15:08:04.307Z,29.10
2023-02-17T15:12:16.717Z,28.85
2023-02-17T15:15:20.102Z,30.92
2023-02-17T15:18:25.970Z,25.75
2023-02-17T15:21:53.164Z,25.73
2023-02-17T15:25:37.562Z,34.78
2023-02-17T15:28:44.074Z,26.98
2023-02-17T15:31:49.225Z,26.62
2023-02-17T15:34:55.635Z,30.23
2023-02-17T15:37:59.014Z,26.65
2023-02-17T15:41:05.128Z,30.33
2023-02-17T15:44:16.657Z,33.80
2023-02-17T15:47:23.558Z,28.08
2023-02-17T15:50:47.033Z,26.67
2023-02-17T15:53:59.369Z,32.45
2023-02-17T15:57:05.518Z,29.23
2023-02-17T16:00:21.056Z,26.42
2023-02-17T16:03:24.727Z,29.90
2023-02-17T16:06:30.156Z,33.92
2023-02-17T16:09:34.290Z,29.33
2023-02-17T16:12:37.712Z,30.15
2023-02-17T16:15:45.082Z,31.30
2023-02-17T16:18:50.905Z,38.97
2023-02-17T16:21:56.880Z,37.50
2023-02-17T16:24:59.812Z,42.72
2023-02-17T16:28:15.754Z,41.08
2023-02-17T16:31:20.229Z,35.92
2023-02-17T16:34:27.100Z,33.83
2023-02-17T16:37:30.662Z,31.83
2023-02-17T16:40:48.180Z,39.78
2023-02-17T16:43:53.147Z,30.12
2023-02-17T16:50:22.662Z,33.10
2023-02-17T16:54:14.257Z,30.88
2023-02-17T16:57:37.115Z,28.80
2023-02-17T17:00:48.790Z,24.25
2023-02-17T17:03:55.147Z,26.58
2023-02-17T17:07:23.274Z,26.80
2023-02-17T17:11:03.258Z,27.90
2023-02-17T17:14:26.813Z,30.27
2023-02-17T17:17:39.934Z,31.70
2023-02-17T17:21:03.528Z,30.77
2023-02-17T17:24:26.424Z,27.70
2023-02-17T17:27:50.307Z,38.15
2023-02-17T17:30:54.498Z,36.22
2023-02-17T17:34:01.463Z,38.35
2023-02-17T17:37:06.826Z,47.72
2023-02-17T17:40:16.669Z,38.40
2023-02-17T17:43:24.381Z,44.53
2023-02-17T17:46:31.000Z,43.58
2023-02-17T17:49:34.817Z,48.75
2023-02-17T17:56:05.818Z,45.38
2023-02-17T17:59:13.827Z,48.25
2023-02-17T18:02:19.454Z,54.97
2023-02-17T18:05:23.349Z,42.78
2023-02-17T18:08:29.724Z,44.75
2023-02-17T18:11:43.503Z,52.10
2023-02-17T18:14:55.195Z,52.35
2023-02-17T18:18:00.829Z,53.53
2023-02-17T18:21:24.712Z,48.92
2023-02-17T18:24:36.210Z,53.35
2023-02-17T18:27:44.224Z,53.30
2023-02-17T18:31:10.789Z,48.35
2023-02-17T18:34:35.861Z,54.67
2023-02-17T18:38:07.991Z,51.90
2023-02-17T18:41:51.070Z,50.53
2023-02-17T18:45:32.608Z,56.42
2023-02-17T18:49:18.883Z,66.43
2023-02-17T18:52:31.606Z,59.53
2023-02-17T18:55:40.116Z,57.97
2023-02-17T18:59:03.204Z,44.35
2023-02-17T19:02:28.632Z,50.55
2023-02-17T19:05:35.711Z,53.78
2023-02-17T19:09:01.717Z,50.47
2023-02-17T19:12:10.061Z,53.47
2023-02-17T19:15:34.914Z,51.88
2023-02-17T19:19:06.213Z,50.38
2023-02-17T19:22:31.509Z,64.28
2023-02-17T19:25:38.262Z,64.05
2023-02-17T19:28:42.129Z,58.67
2023-02-17T19:31:46.829Z,58.15
2023-02-17T19:34:53.030Z,58.70
2023-02-17T19:38:01.502Z,61.88
2023-02-17T19:41:08.136Z,52.00
2023-02-17T19:44:11.832Z,54.40
2023-02-17T19:47:44.118Z,59.92
2023-02-17T19:54:27.613Z,53.63
2023-02-17T19:57:34.627Z,46.75
2023-02-17T20:00:45.421Z,61.65
2023-02-17T20:04:15.301Z,61.40
2023-02-17T20:07:44.028Z,66.75
2023-02-17T20:10:49.791Z,62.25
2023-02-17T20:13:55.981Z,61.58
2023-02-17T20:17:19.386Z,52.15
2023-02-17T20:20:26.518Z,60.40
2023-02-17T20:26:40.380Z,46.47
2023-02-17T20:33:00.597Z,36.50
2023-02-17T20:36:47.403Z,43.25
2023-02-17T20:39:51.639Z,37.13
2023-02-17T20:42:55.357Z,40.17
2023-02-17T20:46:05.485Z,37.40
2023-02-17T20:49:11.066Z,36.20
2023-02-17T20:52:58.801Z,30.10
2023-02-17T20:56:02.801Z,33.33
2023-02-17T20:59:10.341Z,31.20
2023-02-17T21:02:14.067Z,34.42
2023-02-17T21:05:23.893Z,33.97
2023-02-17T21:08:27.118Z,33.08
2023-02-17T21:15:00.270Z,28.35
2023-02-17T21:18:08.882Z,29.17
2023-02-17T21:21:14.991Z,28.65
2023-02-17T21:24:23.017Z,28.15
2023-02-17T21:27:48.412Z,31.65
2023-02-17T21:30:52.423Z,30.20
2023-02-17T21:33:55.862Z,29.52
2023-02-17T21:37:01.823Z,25.35
2023-02-17T21:40:11.708Z,29.20
2023-02-17T21:43:46.638Z,28.98
2023-02-17T21:47:09.701Z,28.35
2023-02-17T21:50:19.919Z,25.95
2023-02-17T21:53:43.385Z,22.27
2023-02-17T21:56:46.961Z,21.35
2023-02-17T21:59:50.236Z,18.98
2023-02-17T22:02:55.302Z,21.60
2023-02-17T22:06:38.064Z,20.33
2023-02-17T22:09:43.222Z,24.95
2023-02-17T22:13:19.001Z,20.88
2023-02-17T22:16:25.078Z,21.60
2023-02-17T22:19:36.376Z,24.65
2023-02-17T22:22:39.744Z,21.17
2023-02-17T22:25:42.782Z,22.17
2023-02-17T22:28:46.130Z,21.05
2023-02-17T22:31:57.969Z,20.98
2023-02-17T22:35:01.049Z,20.37
2023-02-17T22:38:07.509Z,20.42
2023-02-17T22:41:15.283Z,22.13
2023-02-17T22:44:19.350Z,23.73
2023-02-17T22:47:23.130Z,20.37
2023-02-17T22:50:26.202Z,24.83
2023-02-17T22:53:29.738Z,21.73
2023-02-17T22:56:33.298Z,22.37
2023-02-17T22:59:36.639Z,24.15
2023-02-17T23:02:39.244Z,25.98
2023-02-17T23:05:46.877Z,22.83
2023-02-17T23:09:13.750Z,25.15
2023-02-17T23:12:40.585Z,21.25
2023-02-17T23:15:43.544Z,21.92
2023-02-17T23:18:50.106Z,14.87
2023-02-17T23:21:58.267Z,15.13
2023-02-17T23:25:11.864Z,12.20
2023-02-17T23:28:15.685Z,12.57
2023-02-17T23:31:21.560Z,16.30
2023-02-17T23:34:27.004Z,12.15
2023-02-17T23:38:07.282Z,12.82
2023-02-17T23:41:11.286Z,11.65
2023-02-17T23:44:15.923Z,10.05
2023-02-17T23:47:24.318Z,10.75
2023-02-17T23:50:30.098Z,9.63
2023-02-17T23:53:36.557Z,10.50
2023-02-17T23:57:00.223Z,11.93
